sensor_id;sensor_type;location;lat;lon;timestamp;P1;durP1;ratioP1;P2;durP2;ratioP2
9449;SDS011;4763;48.370;10.874;2023-03-19T00:02:44;21.60;;;11.80;;
9449;SDS011;4763;48.370;10.874;2023-03-19T00:05:35;18.87;;;10.97;;
9449;SDS011;4763;48.370;10.874;2023-03-19T00:08:22;18.57;;;11.50;;
9449;SDS011;4763;48.370;10.874;2023-03-19T00:11:10;21.50;;;11.43;;
9449;SDS011;4763;48.370;10.874;2023-03-19T00:13:58;21.33;;;11.77;;
9449;SDS011;4763;48.370;10.874;2023-03-19T00:16:45;16.27;;;10.43;;
9449;SDS011;4763;48.370;10.874;2023-03-19T00:19:33;17.27;;;11.33;;
9449;SDS011;4763;48.370;10.874;2023-03-19T00:22:20;17.73;;;10.27;;
9449;SDS011;4763;48.370;10.874;2023-03-19T00:25:08;18.20;;;10.03;;
9449;SDS011;4763;48.370;10.874;2023-03-19T00:27:55;21.60;;;10.47;;
9449;SDS011;4763;48.370;10.874;2023-03-19T00:30:43;18.83;;;10.27;;
9449;SDS011;4763;48.370;10.874;2023-03-19T00:33:30;15.77;;;9.20;;
9449;SDS011;4763;48.370;10.874;2023-03-19T00:36:19;15.43;;;8.97;;
9449;SDS011;4763;48.370;10.874;2023-03-19T00:39:07;13.07;;;8.40;;
9449;SDS011;4763;48.370;10.874;2023-03-19T00:41:54;16.57;;;10.23;;
9449;SDS011;4763;48.370;10.874;2023-03-19T00:44:41;16.37;;;9.67;;
9449;SDS011;4763;48.370;10.874;2023-03-19T00:47:28;14.93;;;9.43;;
9449;SDS011;4763;48.370;10.874;2023-03-19T00:50:15;14.70;;;9.23;;
9449;SDS011;4763;48.370;10.874;2023-03-19T00:53:04;15.50;;;9.13;;
9449;SDS011;4763;48.370;10.874;2023-03-19T00:55:51;14.70;;;8.97;;
9449;SDS011;4763;48.370;10.874;2023-03-19T00:58:38;19.90;;;8.30;;
9449;SDS011;4763;48.370;10.874;2023-03-19T01:01:26;11.83;;;7.90;;
9449;SDS011;4763;48.370;10.874;2023-03-19T01:04:13;12.40;;;8.30;;
9449;SDS011;4763;48.370;10.874;2023-03-19T01:07:00;11.50;;;7.63;;
9449;SDS011;4763;48.370;10.874;2023-03-19T01:09:49;13.57;;;7.53;;
9449;SDS011;4763;48.370;10.874;2023-03-19T01:12:36;8.47;;;6.23;;
9449;SDS011;4763;48.370;10.874;2023-03-19T01:15:23;13.23;;;6.77;;
9449;SDS011;4763;48.370;10.874;2023-03-19T01:18:10;11.67;;;6.67;;
9449;SDS011;4763;48.370;10.874;2023-03-19T01:20:58;9.67;;;6.13;;
9449;SDS011;4763;48.370;10.874;2023-03-19T01:23:45;11.00;;;6.00;;
9449;SDS011;4763;48.370;10.874;2023-03-19T01:26:33;16.30;;;5.87;;
9449;SDS011;4763;48.370;10.874;2023-03-19T01:29:21;6.57;;;5.23;;
9449;SDS011;4763;48.370;10.874;2023-03-19T01:32:08;7.57;;;5.27;;
9449;SDS011;4763;48.370;10.874;2023-03-19T01:34:55;9.00;;;5.83;;
9449;SDS011;4763;48.370;10.874;2023-03-19T01:37:42;8.83;;;4.90;;
9449;SDS011;4763;48.370;10.874;2023-03-19T01:40:29;10.47;;;5.53;;
9449;SDS011;4763;48.370;10.874;2023-03-19T01:43:18;10.53;;;5.83;;
9449;SDS011;4763;48.370;10.874;2023-03-19T01:46:07;9.10;;;5.57;;
9449;SDS011;4763;48.370;10.874;2023-03-19T01:49:01;8.47;;;6.00;;
9449;SDS011;4763;48.370;10.874;2023-03-19T01:51:50;9.50;;;5.20;;
9449;SDS011;4763;48.370;10.874;2023-03-19T01:54:39;8.23;;;5.50;;
9449;SDS011;4763;48.370;10.874;2023-03-19T01:57:26;8.50;;;5.63;;
9449;SDS011;4763;48.370;10.874;2023-03-19T02:00:17;11.17;;;6.30;;
9449;SDS011;4763;48.370;10.874;2023-03-19T02:03:04;11.00;;;5.67;;
9449;SDS011;4763;48.370;10.874;2023-03-19T02:05:52;7.80;;;5.13;;
9449;SDS011;4763;48.370;10.874;2023-03-19T02:08:41;10.03;;;5.77;;
9449;SDS011;4763;48.370;10.874;2023-03-19T02:11:29;10.43;;;6.23;;
9449;SDS011;4763;48.370;10.874;2023-03-19T02:14:17;10.93;;;5.40;;
9449;SDS011;4763;48.370;10.874;2023-03-19T02:17:05;9.37;;;6.07;;
9449;SDS011;4763;48.370;10.874;2023-03-19T02:19:54;10.03;;;5.37;;
9449;SDS011;4763;48.370;10.874;2023-03-19T02:22:47;7.97;;;5.07;;
9449;SDS011;4763;48.370;10.874;2023-03-19T02:25:49;7.13;;;4.73;;
9449;SDS011;4763;48.370;10.874;2023-03-19T02:28:42;9.30;;;5.83;;
9449;SDS011;4763;48.370;10.874;2023-03-19T02:31:31;9.27;;;5.83;;
9449;SDS011;4763;48.370;10.874;2023-03-19T02:34:35;8.30;;;5.57;;
9449;SDS011;4763;48.370;10.874;2023-03-19T02:37:25;10.53;;;6.20;;
9449;SDS011;4763;48.370;10.874;2023-03-19T02:40:15;8.37;;;5.67;;
9449;SDS011;4763;48.370;10.874;2023-03-19T02:43:08;9.63;;;6.10;;
9449;SDS011;4763;48.370;10.874;2023-03-19T02:45:55;10.80;;;6.23;;
9449;SDS011;4763;48.370;10.874;2023-03-19T02:48:42;10.80;;;6.53;;
9449;SDS011;4763;48.370;10.874;2023-03-19T02:51:29;10.17;;;5.93;;
9449;SDS011;4763;48.370;10.874;2023-03-19T02:54:16;8.63;;;5.37;;
9449;SDS011;4763;48.370;10.874;2023-03-19T02:57:03;9.70;;;5.50;;
9449;SDS011;4763;48.370;10.874;2023-03-19T02:59:52;9.73;;;6.30;;
9449;SDS011;4763;48.370;10.874;2023-03-19T03:02:39;10.40;;;4.80;;
9449;SDS011;4763;48.370;10.874;2023-03-19T03:05:26;9.83;;;5.83;;
9449;SDS011;4763;48.370;10.874;2023-03-19T03:08:14;9.57;;;5.50;;
9449;SDS011;4763;48.370;10.874;2023-03-19T03:11:01;13.70;;;6.87;;
9449;SDS011;4763;48.370;10.874;2023-03-19T03:13:48;10.53;;;7.00;;
9449;SDS011;4763;48.370;10.874;2023-03-19T03:16:37;11.07;;;5.90;;
9449;SDS011;4763;48.370;10.874;2023-03-19T03:19:24;15.03;;;7.50;;
9449;SDS011;4763;48.370;10.874;2023-03-19T03:22:11;12.17;;;7.10;;
9449;SDS011;4763;48.370;10.874;2023-03-19T03:24:58;10.80;;;7.37;;
9449;SDS011;4763;48.370;10.874;2023-03-19T03:27:45;11.07;;;6.43;;
9449;SDS011;4763;48.370;10.874;2023-03-19T03:30:32;12.63;;;6.90;;
9449;SDS011;4763;48.370;10.874;2023-03-19T03:33:21;12.50;;;6.53;;
9449;SDS011;4763;48.370;10.874;2023-03-19T03:36:08;10.03;;;6.30;;
9449;SDS011;4763;48.370;10.874;2023-03-19T03:38:55;11.27;;;6.70;;
9449;SDS011;4763;48.370;10.874;2023-03-19T03:41:42;12.30;;;6.73;;
9449;SDS011;4763;48.370;10.874;2023-03-19T03:44:30;7.87;;;5.80;;
9449;SDS011;4763;48.370;10.874;2023-03-19T03:47:17;7.77;;;5.30;;
9449;SDS011;4763;48.370;10.874;2023-03-19T03:50:06;8.97;;;5.60;;
9449;SDS011;4763;48.370;10.874;2023-03-19T03:52:55;9.00;;;5.73;;
9449;SDS011;4763;48.370;10.874;2023-03-19T03:55:42;9.73;;;6.13;;
9449;SDS011;4763;48.370;10.874;2023-03-19T03:58:29;10.77;;;5.60;;
9449;SDS011;4763;48.370;10.874;2023-03-19T04:01:16;11.27;;;5.33;;
9449;SDS011;4763;48.370;10.874;2023-03-19T04:04:04;9.03;;;5.60;;
9449;SDS011;4763;48.370;10.874;2023-03-19T04:06:52;9.97;;;5.20;;
9449;SDS011;4763;48.370;10.874;2023-03-19T04:09:39;12.03;;;5.40;;
9449;SDS011;4763;48.370;10.874;2023-03-19T04:12:27;9.23;;;5.10;;
9449;SDS011;4763;48.370;10.874;2023-03-19T04:15:14;12.00;;;5.13;;
9449;SDS011;4763;48.370;10.874;2023-03-19T04:18:01;10.60;;;5.43;;
9449;SDS011;4763;48.370;10.874;2023-03-19T04:20:48;8.97;;;5.70;;
9449;SDS011;4763;48.370;10.874;2023-03-19T04:23:37;9.60;;;5.37;;
9449;SDS011;4763;48.370;10.874;2023-03-19T04:26:24;11.37;;;5.57;;
9449;SDS011;4763;48.370;10.874;2023-03-19T04:29:11;10.30;;;6.17;;
9449;SDS011;4763;48.370;10.874;2023-03-19T04:31:58;8.17;;;4.90;;
9449;SDS011;4763;48.370;10.874;2023-03-19T04:34:45;8.73;;;4.83;;
9449;SDS011;4763;48.370;10.874;2023-03-19T04:37:32;12.30;;;5.60;;
9449;SDS011;4763;48.370;10.874;2023-03-19T04:40:21;9.33;;;5.63;;
9449;SDS011;4763;48.370;10.874;2023-03-19T04:43:08;20.57;;;9.30;;
9449;SDS011;4763;48.370;10.874;2023-03-19T04:45:55;25.43;;;11.73;;
9449;SDS011;4763;48.370;10.874;2023-03-19T04:48:42;26.03;;;11.20;;
9449;SDS011;4763;48.370;10.874;2023-03-19T04:51:29;22.30;;;8.93;;
9449;SDS011;4763;48.370;10.874;2023-03-19T04:54:16;12.13;;;6.70;;
9449;SDS011;4763;48.370;10.874;2023-03-19T04:57:06;11.30;;;7.00;;
9449;SDS011;4763;48.370;10.874;2023-03-19T04:59:53;9.77;;;6.93;;
9449;SDS011;4763;48.370;10.874;2023-03-19T05:02:40;12.17;;;6.80;;
9449;SDS011;4763;48.370;10.874;2023-03-19T05:05:28;10.90;;;6.13;;
9449;SDS011;4763;48.370;10.874;2023-03-19T05:08:15;12.50;;;6.53;;
9449;SDS011;4763;48.370;10.874;2023-03-19T05:11:02;8.37;;;6.40;;
9449;SDS011;4763;48.370;10.874;2023-03-19T05:13:51;8.10;;;6.27;;
9449;SDS011;4763;48.370;10.874;2023-03-19T05:16:38;8.93;;;6.13;;
9449;SDS011;4763;48.370;10.874;2023-03-19T05:19:25;12.63;;;6.90;;
9449;SDS011;4763;48.370;10.874;2023-03-19T05:22:13;9.47;;;6.30;;
9449;SDS011;4763;48.370;10.874;2023-03-19T05:25:00;10.40;;;6.33;;
9449;SDS011;4763;48.370;10.874;2023-03-19T05:27:47;9.83;;;5.93;;
9449;SDS011;4763;48.370;10.874;2023-03-19T05:30:35;10.90;;;5.90;;
9449;SDS011;4763;48.370;10.874;2023-03-19T05:33:23;7.17;;;5.63;;
9449;SDS011;4763;48.370;10.874;2023-03-19T05:36:10;6.83;;;5.50;;
9449;SDS011;4763;48.370;10.874;2023-03-19T05:38:58;9.40;;;5.97;;
9449;SDS011;4763;48.370;10.874;2023-03-19T05:41:46;9.43;;;6.50;;
9449;SDS011;4763;48.370;10.874;2023-03-19T05:44:33;8.57;;;6.87;;
9449;SDS011;4763;48.370;10.874;2023-03-19T05:47:22;8.77;;;6.07;;
9449;SDS011;4763;48.370;10.874;2023-03-19T05:50:09;10.27;;;5.50;;
9449;SDS011;4763;48.370;10.874;2023-03-19T05:52:57;8.47;;;5.40;;
9449;SDS011;4763;48.370;10.874;2023-03-19T05:55:44;7.53;;;5.77;;
9449;SDS011;4763;48.370;10.874;2023-03-19T05:58:31;8.23;;;5.27;;
9449;SDS011;4763;48.370;10.874;2023-03-19T06:01:18;12.07;;;6.83;;
9449;SDS011;4763;48.370;10.874;2023-03-19T06:04:07;10.27;;;6.87;;
9449;SDS011;4763;48.370;10.874;2023-03-19T06:06:54;10.30;;;6.57;;
9449;SDS011;4763;48.370;10.874;2023-03-19T06:09:41;10.37;;;7.13;;
9449;SDS011;4763;48.370;10.874;2023-03-19T06:12:28;8.80;;;6.00;;
9449;SDS011;4763;48.370;10.874;2023-03-19T06:15:16;7.63;;;5.40;;
9449;SDS011;4763;48.370;10.874;2023-03-19T06:18:03;9.13;;;6.33;;
9449;SDS011;4763;48.370;10.874;2023-03-19T06:20:51;7.47;;;6.00;;
9449;SDS011;4763;48.370;10.874;2023-03-19T06:23:38;9.37;;;5.80;;
9449;SDS011;4763;48.370;10.874;2023-03-19T06:26:26;6.90;;;4.67;;
9449;SDS011;4763;48.370;10.874;2023-03-19T06:29:13;7.90;;;5.13;;
9449;SDS011;4763;48.370;10.874;2023-03-19T06:32:00;8.70;;;5.53;;
9449;SDS011;4763;48.370;10.874;2023-03-19T06:34:49;8.13;;;4.83;;
9449;SDS011;4763;48.370;10.874;2023-03-19T06:37:37;9.73;;;5.57;;
9449;SDS011;4763;48.370;10.874;2023-03-19T06:40:24;10.87;;;5.33;;
9449;SDS011;4763;48.370;10.874;2023-03-19T06:43:12;7.47;;;4.63;;
9449;SDS011;4763;48.370;10.874;2023-03-19T06:45:59;7.37;;;5.33;;
9449;SDS011;4763;48.370;10.874;2023-03-19T06:48:46;6.53;;;4.67;;
9449;SDS011;4763;48.370;10.874;2023-03-19T06:51:33;7.60;;;5.03;;
9449;SDS011;4763;48.370;10.874;2023-03-19T06:54:22;7.10;;;4.50;;
9449;SDS011;4763;48.370;10.874;2023-03-19T06:57:10;6.33;;;4.77;;
9449;SDS011;4763;48.370;10.874;2023-03-19T06:59:57;11.87;;;5.67;;
9449;SDS011;4763;48.370;10.874;2023-03-19T07:02:44;7.43;;;4.70;;
9449;SDS011;4763;48.370;10.874;2023-03-19T07:05:31;5.83;;;4.13;;
9449;SDS011;4763;48.370;10.874;2023-03-19T07:08:18;7.90;;;4.40;;
9449;SDS011;4763;48.370;10.874;2023-03-19T07:11:07;6.97;;;4.73;;
9449;SDS011;4763;48.370;10.874;2023-03-19T07:13:55;6.77;;;4.50;;
9449;SDS011;4763;48.370;10.874;2023-03-19T07:16:42;7.20;;;4.93;;
9449;SDS011;4763;48.370;10.874;2023-03-19T07:19:29;6.57;;;4.50;;
9449;SDS011;4763;48.370;10.874;2023-03-19T07:22:16;6.57;;;4.60;;
9449;SDS011;4763;48.370;10.874;2023-03-19T07:25:03;8.03;;;4.50;;
9449;SDS011;4763;48.370;10.874;2023-03-19T07:27:52;5.77;;;4.20;;
9449;SDS011;4763;48.370;10.874;2023-03-19T07:30:40;6.03;;;4.30;;
9449;SDS011;4763;48.370;10.874;2023-03-19T07:33:27;4.30;;;3.90;;
9449;SDS011;4763;48.370;10.874;2023-03-19T07:36:14;4.87;;;4.23;;
9449;SDS011;4763;48.370;10.874;2023-03-19T07:39:01;5.73;;;3.97;;
9449;SDS011;4763;48.370;10.874;2023-03-19T07:41:48;4.57;;;4.07;;
9449;SDS011;4763;48.370;10.874;2023-03-19T07:44:36;6.43;;;3.57;;
9449;SDS011;4763;48.370;10.874;2023-03-19T07:47:23;6.77;;;3.90;;
9449;SDS011;4763;48.370;10.874;2023-03-19T07:50:11;5.20;;;3.87;;
9449;SDS011;4763;48.370;10.874;2023-03-19T07:52:58;5.33;;;4.20;;
9449;SDS011;4763;48.370;10.874;2023-03-19T07:55:46;6.67;;;4.50;;
9449;SDS011;4763;48.370;10.874;2023-03-19T07:58:33;5.97;;;3.97;;
9449;SDS011;4763;48.370;10.874;2023-03-19T08:01:22;8.87;;;3.90;;
9449;SDS011;4763;48.370;10.874;2023-03-19T08:04:09;5.80;;;4.53;;
9449;SDS011;4763;48.370;10.874;2023-03-19T08:06:56;6.63;;;4.40;;
9449;SDS011;4763;48.370;10.874;2023-03-19T08:09:43;6.70;;;5.00;;
9449;SDS011;4763;48.370;10.874;2023-03-19T08:12:30;8.47;;;4.37;;
9449;SDS011;4763;48.370;10.874;2023-03-19T08:15:18;9.07;;;5.43;;
9449;SDS011;4763;48.370;10.874;2023-03-19T08:18:07;6.60;;;4.47;;
9449;SDS011;4763;48.370;10.874;2023-03-19T08:20:54;6.10;;;4.33;;
9449;SDS011;4763;48.370;10.874;2023-03-19T08:23:41;8.33;;;4.90;;
9449;SDS011;4763;48.370;10.874;2023-03-19T08:26:28;11.07;;;4.73;;
9449;SDS011;4763;48.370;10.874;2023-03-19T08:29:17;6.30;;;3.97;;
9449;SDS011;4763;48.370;10.874;2023-03-19T08:32:04;8.33;;;4.27;;
9449;SDS011;4763;48.370;10.874;2023-03-19T08:34:53;5.83;;;4.23;;
9449;SDS011;4763;48.370;10.874;2023-03-19T08:37:40;6.77;;;4.70;;
9449;SDS011;4763;48.370;10.874;2023-03-19T08:40:27;5.10;;;4.30;;
9449;SDS011;4763;48.370;10.874;2023-03-19T08:43:14;6.67;;;4.10;;
9449;SDS011;4763;48.370;10.874;2023-03-19T08:46:01;7.10;;;4.57;;
9449;SDS011;4763;48.370;10.874;2023-03-19T08:48:49;6.47;;;4.03;;
9449;SDS011;4763;48.370;10.874;2023-03-19T08:51:38;7.10;;;4.40;;
9449;SDS011;4763;48.370;10.874;2023-03-19T08:54:25;5.00;;;3.37;;
9449;SDS011;4763;48.370;10.874;2023-03-19T08:57:12;6.00;;;4.27;;
9449;SDS011;4763;48.370;10.874;2023-03-19T08:59:59;6.23;;;4.40;;
9449;SDS011;4763;48.370;10.874;2023-03-19T09:02:46;5.67;;;4.57;;
9449;SDS011;4763;48.370;10.874;2023-03-19T09:05:34;8.77;;;4.90;;
9449;SDS011;4763;48.370;10.874;2023-03-19T09:08:23;11.90;;;7.70;;
9449;SDS011;4763;48.370;10.874;2023-03-19T09:11:10;7.57;;;5.47;;
9449;SDS011;4763;48.370;10.874;2023-03-19T09:13:58;5.73;;;4.97;;
9449;SDS011;4763;48.370;10.874;2023-03-19T09:16:46;5.93;;;4.93;;
9449;SDS011;4763;48.370;10.874;2023-03-19T09:19:33;8.00;;;4.80;;
9449;SDS011;4763;48.370;10.874;2023-03-19T09:22:21;6.53;;;4.60;;
9449;SDS011;4763;48.370;10.874;2023-03-19T09:25:09;5.30;;;4.70;;
9449;SDS011;4763;48.370;10.874;2023-03-19T09:27:57;6.47;;;4.73;;
9449;SDS011;4763;48.370;10.874;2023-03-19T09:30:44;6.53;;;4.67;;
9449;SDS011;4763;48.370;10.874;2023-03-19T09:33:32;4.87;;;4.00;;
9449;SDS011;4763;48.370;10.874;2023-03-19T09:36:19;7.37;;;3.83;;
9449;SDS011;4763;48.370;10.874;2023-03-19T09:39:06;4.70;;;3.43;;
9449;SDS011;4763;48.370;10.874;2023-03-19T09:41:59;5.50;;;3.97;;
9449;SDS011;4763;48.370;10.874;2023-03-19T09:44:56;7.47;;;4.20;;
9449;SDS011;4763;48.370;10.874;2023-03-19T09:47:43;5.90;;;4.87;;
9449;SDS011;4763;48.370;10.874;2023-03-19T09:50:33;6.20;;;4.10;;
9449;SDS011;4763;48.370;10.874;2023-03-19T09:53:22;6.07;;;3.80;;
9449;SDS011;4763;48.370;10.874;2023-03-19T09:56:16;7.03;;;4.27;;
9449;SDS011;4763;48.370;10.874;2023-03-19T09:59:08;5.27;;;3.90;;
9449;SDS011;4763;48.370;10.874;2023-03-19T10:02:00;5.10;;;3.93;;
9449;SDS011;4763;48.370;10.874;2023-03-19T10:05:10;5.07;;;3.97;;
9449;SDS011;4763;48.370;10.874;2023-03-19T10:08:12;7.17;;;5.00;;
9449;SDS011;4763;48.370;10.874;2023-03-19T10:11:28;6.53;;;3.77;;
9449;SDS011;4763;48.370;10.874;2023-03-19T10:14:42;7.53;;;4.33;;
9449;SDS011;4763;48.370;10.874;2023-03-19T10:17:41;8.80;;;4.07;;
9449;SDS011;4763;48.370;10.874;2023-03-19T10:20:48;4.13;;;3.43;;
9449;SDS011;4763;48.370;10.874;2023-03-19T10:23:41;5.97;;;4.30;;
9449;SDS011;4763;48.370;10.874;2023-03-19T10:26:31;3.97;;;3.40;;
9449;SDS011;4763;48.370;10.874;2023-03-19T10:29:21;4.07;;;2.83;;
9449;SDS011;4763;48.370;10.874;2023-03-19T10:32:14;5.23;;;3.40;;
9449;SDS011;4763;48.370;10.874;2023-03-19T10:35:05;7.10;;;3.07;;
9449;SDS011;4763;48.370;10.874;2023-03-19T10:37:58;5.30;;;3.20;;
9449;SDS011;4763;48.370;10.874;2023-03-19T10:41:03;4.83;;;3.40;;
9449;SDS011;4763;48.370;10.874;2023-03-19T10:44:02;10.97;;;3.90;;
9449;SDS011;4763;48.370;10.874;2023-03-19T10:46:52;5.03;;;3.50;;
9449;SDS011;4763;48.370;10.874;2023-03-19T10:49:43;9.03;;;6.27;;
9449;SDS011;4763;48.370;10.874;2023-03-19T10:52:31;4.33;;;3.50;;
9449;SDS011;4763;48.370;10.874;2023-03-19T10:55:22;3.43;;;2.80;;
9449;SDS011;4763;48.370;10.874;2023-03-19T10:58:14;4.73;;;2.70;;
9449;SDS011;4763;48.370;10.874;2023-03-19T11:01:04;7.67;;;4.87;;
9449;SDS011;4763;48.370;10.874;2023-03-19T11:03:54;7.03;;;3.60;;
9449;SDS011;4763;48.370;10.874;2023-03-19T11:06:44;3.63;;;3.00;;
9449;SDS011;4763;48.370;10.874;2023-03-19T11:09:35;4.90;;;3.23;;
9449;SDS011;4763;48.370;10.874;2023-03-19T11:12:24;6.30;;;3.40;;
9449;SDS011;4763;48.370;10.874;2023-03-19T11:15:15;6.17;;;3.70;;
9449;SDS011;4763;48.370;10.874;2023-03-19T11:18:07;8.73;;;4.10;;
9449;SDS011;4763;48.370;10.874;2023-03-19T11:21:05;3.80;;;3.10;;
9449;SDS011;4763;48.370;10.874;2023-03-19T11:23:59;4.77;;;3.37;;
9449;SDS011;4763;48.370;10.874;2023-03-19T11:26:52;4.07;;;3.30;;
9449;SDS011;4763;48.370;10.874;2023-03-19T11:29:41;5.30;;;2.90;;
9449;SDS011;4763;48.370;10.874;2023-03-19T11:32:37;6.60;;;4.53;;
9449;SDS011;4763;48.370;10.874;2023-03-19T11:35:43;5.43;;;3.77;;
9449;SDS011;4763;48.370;10.874;2023-03-19T11:38:38;4.27;;;3.60;;
9449;SDS011;4763;48.370;10.874;2023-03-19T11:41:41;6.97;;;3.67;;
9449;SDS011;4763;48.370;10.874;2023-03-19T11:44:41;7.50;;;4.07;;
9449;SDS011;4763;48.370;10.874;2023-03-19T11:47:40;8.70;;;4.77;;
9449;SDS011;4763;48.370;10.874;2023-03-19T11:50:38;7.10;;;4.73;;
9449;SDS011;4763;48.370;10.874;2023-03-19T11:53:30;6.13;;;3.93;;
9449;SDS011;4763;48.370;10.874;2023-03-19T11:56:27;4.97;;;3.37;;
9449;SDS011;4763;48.370;10.874;2023-03-19T11:59:23;5.50;;;3.33;;
9449;SDS011;4763;48.370;10.874;2023-03-19T12:02:26;5.73;;;3.07;;
9449;SDS011;4763;48.370;10.874;2023-03-19T12:05:28;6.53;;;3.00;;
9449;SDS011;4763;48.370;10.874;2023-03-19T12:08:21;3.77;;;2.70;;
9449;SDS011;4763;48.370;10.874;2023-03-19T12:11:16;6.13;;;2.43;;
9449;SDS011;4763;48.370;10.874;2023-03-19T12:14:12;7.27;;;3.37;;
9449;SDS011;4763;48.370;10.874;2023-03-19T12:17:16;6.93;;;4.13;;
9449;SDS011;4763;48.370;10.874;2023-03-19T12:20:13;7.53;;;3.53;;
9449;SDS011;4763;48.370;10.874;2023-03-19T12:23:11;4.60;;;2.67;;
9449;SDS011;4763;48.370;10.874;2023-03-19T12:26:13;7.10;;;3.47;;
9449;SDS011;4763;48.370;10.874;2023-03-19T12:29:07;5.17;;;2.60;;
9449;SDS011;4763;48.370;10.874;2023-03-19T12:32:10;4.13;;;2.63;;
9449;SDS011;4763;48.370;10.874;2023-03-19T12:35:08;4.00;;;2.83;;
9449;SDS011;4763;48.370;10.874;2023-03-19T12:37:58;5.07;;;2.80;;
9449;SDS011;4763;48.370;10.874;2023-03-19T12:40:50;3.00;;;2.27;;
9449;SDS011;4763;48.370;10.874;2023-03-19T12:43:43;5.43;;;2.40;;
9449;SDS011;4763;48.370;10.874;2023-03-19T12:46:38;4.73;;;2.87;;
9449;SDS011;4763;48.370;10.874;2023-03-19T12:49:30;7.73;;;2.40;;
9449;SDS011;4763;48.370;10.874;2023-03-19T12:52:22;3.73;;;2.20;;
9449;SDS011;4763;48.370;10.874;2023-03-19T12:55:13;3.33;;;2.60;;
9449;SDS011;4763;48.370;10.874;2023-03-19T12:58:05;3.73;;;2.10;;
9449;SDS011;4763;48.370;10.874;2023-03-19T13:00:59;2.37;;;2.13;;
9449;SDS011;4763;48.370;10.874;2023-03-19T13:03:54;2.80;;;2.60;;
9449;SDS011;4763;48.370;10.874;2023-03-19T13:06:48;4.63;;;2.20;;
9449;SDS011;4763;48.370;10.874;2023-03-19T13:09:39;6.27;;;2.40;;
9449;SDS011;4763;48.370;10.874;2023-03-19T13:12:33;3.20;;;2.67;;
9449;SDS011;4763;48.370;10.874;2023-03-19T13:15:23;4.87;;;3.40;;
9449;SDS011;4763;48.370;10.874;2023-03-19T13:18:16;4.13;;;3.47;;
9449;SDS011;4763;48.370;10.874;2023-03-19T13:21:13;6.70;;;2.93;;
9449;SDS011;4763;48.370;10.874;2023-03-19T13:24:11;4.53;;;2.87;;
9449;SDS011;4763;48.370;10.874;2023-03-19T13:27:05;4.50;;;2.43;;
9449;SDS011;4763;48.370;10.874;2023-03-19T13:30:06;5.20;;;3.07;;
9449;SDS011;4763;48.370;10.874;2023-03-19T13:33:03;3.63;;;2.53;;
9449;SDS011;4763;48.370;10.874;2023-03-19T13:35:52;4.23;;;2.80;;
9449;SDS011;4763;48.370;10.874;2023-03-19T13:38:42;3.43;;;2.37;;
9449;SDS011;4763;48.370;10.874;2023-03-19T13:41:52;4.20;;;3.10;;
9449;SDS011;4763;48.370;10.874;2023-03-19T13:44:52;3.10;;;2.40;;
9449;SDS011;4763;48.370;10.874;2023-03-19T13:47:41;6.03;;;2.97;;
9449;SDS011;4763;48.370;10.874;2023-03-19T13:50:29;4.53;;;2.20;;
9449;SDS011;4763;48.370;10.874;2023-03-19T13:53:36;3.90;;;2.60;;
9449;SDS011;4763;48.370;10.874;2023-03-19T13:56:24;3.50;;;2.43;;
9449;SDS011;4763;48.370;10.874;2023-03-19T13:59:24;4.97;;;2.67;;
9449;SDS011;4763;48.370;10.874;2023-03-19T14:05:33;4.33;;;2.60;;
9449;SDS011;4763;48.370;10.874;2023-03-19T14:08:22;4.57;;;2.30;;
9449;SDS011;4763;48.370;10.874;2023-03-19T14:11:19;3.13;;;2.33;;
9449;SDS011;4763;48.370;10.874;2023-03-19T14:14:11;4.53;;;2.97;;
9449;SDS011;4763;48.370;10.874;2023-03-19T14:17:02;5.97;;;2.53;;
9449;SDS011;4763;48.370;10.874;2023-03-19T14:19:50;7.33;;;2.43;;
9449;SDS011;4763;48.370;10.874;2023-03-19T14:22:39;6.73;;;2.27;;
9449;SDS011;4763;48.370;10.874;2023-03-19T14:25:51;3.47;;;2.27;;
9449;SDS011;4763;48.370;10.874;2023-03-19T14:28:45;5.97;;;2.90;;
9449;SDS011;4763;48.370;10.874;2023-03-19T14:31:46;3.60;;;2.80;;
9449;SDS011;4763;48.370;10.874;2023-03-19T14:34:37;3.30;;;2.37;;
9449;SDS011;4763;48.370;10.874;2023-03-19T14:37:28;3.53;;;2.50;;
9449;SDS011;4763;48.370;10.874;2023-03-19T14:40:24;2.80;;;2.30;;
9449;SDS011;4763;48.370;10.874;2023-03-19T14:43:16;4.13;;;2.23;;
9449;SDS011;4763;48.370;10.874;2023-03-19T14:46:20;4.30;;;2.77;;
9449;SDS011;4763;48.370;10.874;2023-03-19T14:49:27;2.93;;;1.90;;
9449;SDS011;4763;48.370;10.874;2023-03-19T14:52:36;6.83;;;2.80;;
9449;SDS011;4763;48.370;10.874;2023-03-19T14:55:32;2.87;;;2.37;;
9449;SDS011;4763;48.370;10.874;2023-03-19T14:58:21;4.03;;;2.80;;
9449;SDS011;4763;48.370;10.874;2023-03-19T15:01:08;3.63;;;2.60;;
9449;SDS011;4763;48.370;10.874;2023-03-19T15:03:55;2.63;;;1.90;;
9449;SDS011;4763;48.370;10.874;2023-03-19T15:06:49;2.73;;;1.93;;
9449;SDS011;4763;48.370;10.874;2023-03-19T15:09:39;3.50;;;2.37;;
9449;SDS011;4763;48.370;10.874;2023-03-19T15:12:29;6.60;;;2.13;;
9449;SDS011;4763;48.370;10.874;2023-03-19T15:15:23;2.87;;;2.00;;
9449;SDS011;4763;48.370;10.874;2023-03-19T15:18:17;4.63;;;2.20;;
9449;SDS011;4763;48.370;10.874;2023-03-19T15:21:05;3.97;;;2.30;;
9449;SDS011;4763;48.370;10.874;2023-03-19T15:23:52;3.80;;;2.20;;
9449;SDS011;4763;48.370;10.874;2023-03-19T15:26:42;3.50;;;2.30;;
9449;SDS011;4763;48.370;10.874;2023-03-19T15:29:30;3.30;;;2.30;;
9449;SDS011;4763;48.370;10.874;2023-03-19T15:32:31;5.17;;;2.73;;
9449;SDS011;4763;48.370;10.874;2023-03-19T15:35:19;2.93;;;2.43;;
9449;SDS011;4763;48.370;10.874;2023-03-19T15:38:12;5.50;;;2.80;;
9449;SDS011;4763;48.370;10.874;2023-03-19T15:41:01;3.53;;;2.17;;
9449;SDS011;4763;48.370;10.874;2023-03-19T15:43:52;4.27;;;1.87;;
9449;SDS011;4763;48.370;10.874;2023-03-19T15:46:40;2.40;;;1.97;;
9449;SDS011;4763;48.370;10.874;2023-03-19T15:49:29;8.43;;;2.47;;
9449;SDS011;4763;48.370;10.874;2023-03-19T15:52:20;4.03;;;2.50;;
9449;SDS011;4763;48.370;10.874;2023-03-19T15:55:09;3.70;;;2.43;;
9449;SDS011;4763;48.370;10.874;2023-03-19T15:58:02;4.30;;;2.20;;
9449;SDS011;4763;48.370;10.874;2023-03-19T16:00:54;3.73;;;1.90;;
9449;SDS011;4763;48.370;10.874;2023-03-19T16:03:44;3.47;;;2.30;;
9449;SDS011;4763;48.370;10.874;2023-03-19T16:06:36;4.47;;;2.20;;
9449;SDS011;4763;48.370;10.874;2023-03-19T16:09:24;6.13;;;2.90;;
9449;SDS011;4763;48.370;10.874;2023-03-19T16:15:35;2.83;;;2.20;;
9449;SDS011;4763;48.370;10.874;2023-03-19T16:18:28;4.57;;;2.20;;
9449;SDS011;4763;48.370;10.874;2023-03-19T16:21:27;2.33;;;1.80;;
9449;SDS011;4763;48.370;10.874;2023-03-19T16:24:20;5.13;;;2.10;;
9449;SDS011;4763;48.370;10.874;2023-03-19T16:27:12;2.83;;;2.40;;
9449;SDS011;4763;48.370;10.874;2023-03-19T16:30:01;2.50;;;2.00;;
9449;SDS011;4763;48.370;10.874;2023-03-19T16:32:56;3.53;;;2.37;;
9449;SDS011;4763;48.370;10.874;2023-03-19T16:35:45;2.30;;;2.00;;
9449;SDS011;4763;48.370;10.874;2023-03-19T16:38:34;2.63;;;1.83;;
9449;SDS011;4763;48.370;10.874;2023-03-19T16:41:28;5.27;;;2.30;;
9449;SDS011;4763;48.370;10.874;2023-03-19T16:44:27;3.70;;;1.70;;
9449;SDS011;4763;48.370;10.874;2023-03-19T16:47:14;3.67;;;2.37;;
9449;SDS011;4763;48.370;10.874;2023-03-19T16:50:02;3.50;;;2.47;;
9449;SDS011;4763;48.370;10.874;2023-03-19T16:52:50;3.73;;;2.00;;
9449;SDS011;4763;48.370;10.874;2023-03-19T16:55:37;3.83;;;2.40;;
9449;SDS011;4763;48.370;10.874;2023-03-19T16:58:25;4.87;;;2.77;;
9449;SDS011;4763;48.370;10.874;2023-03-19T17:01:15;2.90;;;2.50;;
9449;SDS011;4763;48.370;10.874;2023-03-19T17:04:04;6.33;;;4.17;;
9449;SDS011;4763;48.370;10.874;2023-03-19T17:06:57;12.43;;;7.87;;
9449;SDS011;4763;48.370;10.874;2023-03-19T17:09:45;73.30;;;37.07;;
9449;SDS011;4763;48.370;10.874;2023-03-19T17:12:32;14.87;;;9.03;;
9449;SDS011;4763;48.370;10.874;2023-03-19T17:15:21;7.87;;;4.53;;
9449;SDS011;4763;48.370;10.874;2023-03-19T17:18:12;6.40;;;3.40;;
9449;SDS011;4763;48.370;10.874;2023-03-19T17:21:02;3.17;;;2.20;;
9449;SDS011;4763;48.370;10.874;2023-03-19T17:23:53;3.60;;;2.13;;
9449;SDS011;4763;48.370;10.874;2023-03-19T17:26:42;2.73;;;1.87;;